sensor_id;sensor_type;location;lat;lon;timestamp;temperature;humidity
7248;DHT22;3665;51.034;13.642;2023-05-27T00:04:30;8.80;1.00
7248;DHT22;3665;51.034;13.642;2023-05-27T00:09:18;8.60;1.00
7248;DHT22;3665;51.034;13.642;2023-05-27T00:14:11;8.40;1.00
7248;DHT22;3665;51.034;13.642;2023-05-27T00:18:55;8.30;1.00
7248;DHT22;3665;51.034;13.642;2023-05-27T00:23:44;8.20;1.00
7248;DHT22;3665;51.034;13.642;2023-05-27T00:28:27;8.00;1.00
7248;DHT22;3665;51.034;13.642;2023-05-27T00:33:23;7.90;1.00
7248;DHT22;3665;51.034;13.642;2023-05-27T00:38:07;7.80;1.00
7248;DHT22;3665;51.034;13.642;2023-05-27T00:42:52;7.60;1.00
7248;DHT22;3665;51.034;13.642;2023-05-27T00:47:42;7.60;1.00
7248;DHT22;3665;51.034;13.642;2023-05-27T00:52:35;7.50;1.00
7248;DHT22;3665;51.034;13.642;2023-05-27T00:57:19;7.40;1.00
7248;DHT22;3665;51.034;13.642;2023-05-27T01:02:07;7.30;1.00
7248;DHT22;3665;51.034;13.642;2023-05-27T01:06:59;7.10;1.00
7248;DHT22;3665;51.034;13.642;2023-05-27T01:11:57;7.00;1.00
7248;DHT22;3665;51.034;13.642;2023-05-27T01:16:44;6.90;1.00
7248;DHT22;3665;51.034;13.642;2023-05-27T01:21:39;7.00;1.00
7248;DHT22;3665;51.034;13.642;2023-05-27T01:26:43;6.90;1.00
7248;DHT22;3665;51.034;13.642;2023-05-27T01:31:32;6.90;1.00
7248;DHT22;3665;51.034;13.642;2023-05-27T01:36:20;6.70;1.00
7248;DHT22;3665;51.034;13.642;2023-05-27T01:41:04;6.60;1.00
7248;DHT22;3665;51.034;13.642;2023-05-27T01:46:08;6.50;18.90
7248;DHT22;3665;51.034;13.642;2023-05-27T01:50:54;6.30;99.90
7248;DHT22;3665;51.034;13.642;2023-05-27T01:55:45;6.30;99.90
7248;DHT22;3665;51.034;13.642;2023-05-27T02:00:32;6.30;1.00
7248;DHT22;3665;51.034;13.642;2023-05-27T02:05:19;6.20;1.00
7248;DHT22;3665;51.034;13.642;2023-05-27T02:10:07;6.10;1.00
7248;DHT22;3665;51.034;13.642;2023-05-27T02:14:55;6.00;1.00
7248;DHT22;3665;51.034;13.642;2023-05-27T02:19:44;5.90;99.90
7248;DHT22;3665;51.034;13.642;2023-05-27T02:24:31;5.90;99.90
7248;DHT22;3665;51.034;13.642;2023-05-27T02:29:21;5.90;1.00
7248;DHT22;3665;51.034;13.642;2023-05-27T02:34:06;5.80;1.00
7248;DHT22;3665;51.034;13.642;2023-05-27T02:38:52;5.80;80.00
7248;DHT22;3665;51.034;13.642;2023-05-27T02:43:47;5.70;91.90
7248;DHT22;3665;51.034;13.642;2023-05-27T02:48:31;5.60;1.00
7248;DHT22;3665;51.034;13.642;2023-05-27T02:53:14;5.50;1.00
7248;DHT22;3665;51.034;13.642;2023-05-27T02:58:00;5.50;1.00
7248;DHT22;3665;51.034;13.642;2023-05-27T03:02:56;5.50;99.90
7248;DHT22;3665;51.034;13.642;2023-05-27T03:07:46;5.40;99.90
7248;DHT22;3665;51.034;13.642;2023-05-27T03:12:32;5.40;99.90
7248;DHT22;3665;51.034;13.642;2023-05-27T03:17:22;5.50;99.90
7248;DHT22;3665;51.034;13.642;2023-05-27T03:22:07;5.50;99.90
7248;DHT22;3665;51.034;13.642;2023-05-27T03:26:56;5.60;99.90
7248;DHT22;3665;51.034;13.642;2023-05-27T03:31:43;5.70;99.90
7248;DHT22;3665;51.034;13.642;2023-05-27T03:36:32;5.70;99.90
7248;DHT22;3665;51.034;13.642;2023-05-27T03:41:19;5.80;99.90
7248;DHT22;3665;51.034;13.642;2023-05-27T03:46:06;5.90;99.90
7248;DHT22;3665;51.034;13.642;2023-05-27T03:50:55;6.10;99.90
7248;DHT22;3665;51.034;13.642;2023-05-27T03:55:41;6.30;82.50
7248;DHT22;3665;51.034;13.642;2023-05-27T04:00:40;6.70;1.00
7248;DHT22;3665;51.034;13.642;2023-05-27T04:05:36;7.40;99.90
7248;DHT22;3665;51.034;13.642;2023-05-27T04:10:23;7.80;1.00
7248;DHT22;3665;51.034;13.642;2023-05-27T04:15:11;7.90;1.00
7248;DHT22;3665;51.034;13.642;2023-05-27T04:19:59;8.00;1.00
7248;DHT22;3665;51.034;13.642;2023-05-27T04:24:50;8.40;1.00
7248;DHT22;3665;51.034;13.642;2023-05-27T04:29:35;8.60;1.00
7248;DHT22;3665;51.034;13.642;2023-05-27T04:34:22;9.00;1.00
7248;DHT22;3665;51.034;13.642;2023-05-27T04:39:15;9.40;1.00
7248;DHT22;3665;51.034;13.642;2023-05-27T04:44:00;9.80;1.00
7248;DHT22;3665;51.034;13.642;2023-05-27T04:48:49;10.20;1.00
7248;DHT22;3665;51.034;13.642;2023-05-27T04:53:35;10.50;1.00
7248;DHT22;3665;51.034;13.642;2023-05-27T04:58:23;10.90;1.00
7248;DHT22;3665;51.034;13.642;2023-05-27T05:03:10;11.30;1.00
7248;DHT22;3665;51.034;13.642;2023-05-27T05:08:15;11.70;1.00
7248;DHT22;3665;51.034;13.642;2023-05-27T05:13:02;12.00;1.00
7248;DHT22;3665;51.034;13.642;2023-05-27T05:17:49;12.40;1.00
7248;DHT22;3665;51.034;13.642;2023-05-27T05:22:49;12.80;1.00
7248;DHT22;3665;51.034;13.642;2023-05-27T05:27:45;12.90;1.00
7248;DHT22;3665;51.034;13.642;2023-05-27T05:32:31;13.30;1.00
7248;DHT22;3665;51.034;13.642;2023-05-27T05:37:19;13.50;1.00
7248;DHT22;3665;51.034;13.642;2023-05-27T05:42:08;13.90;1.00
7248;DHT22;3665;51.034;13.642;2023-05-27T05:46:58;13.80;1.00
7248;DHT22;3665;51.034;13.642;2023-05-27T05:51:43;14.00;1.00
7248;DHT22;3665;51.034;13.642;2023-05-27T05:56:31;14.20;1.00
7248;DHT22;3665;51.034;13.642;2023-05-27T06:01:22;14.30;1.00
7248;DHT22;3665;51.034;13.642;2023-05-27T06:06:06;14.50;1.00
7248;DHT22;3665;51.034;13.642;2023-05-27T06:11:11;14.70;1.00
7248;DHT22;3665;51.034;13.642;2023-05-27T06:15:59;14.90;1.00
7248;DHT22;3665;51.034;13.642;2023-05-27T06:20:46;15.00;1.00
7248;DHT22;3665;51.034;13.642;2023-05-27T06:25:34;15.40;1.00
7248;DHT22;3665;51.034;13.642;2023-05-27T06:30:23;15.50;1.00
7248;DHT22;3665;51.034;13.642;2023-05-27T06:35:12;15.40;1.00
7248;DHT22;3665;51.034;13.642;2023-05-27T06:39:58;15.40;1.00
7248;DHT22;3665;51.034;13.642;2023-05-27T06:44:46;15.90;1.00
7248;DHT22;3665;51.034;13.642;2023-05-27T06:49:35;15.90;1.00
7248;DHT22;3665;51.034;13.642;2023-05-27T06:54:22;16.30;1.00
7248;DHT22;3665;51.034;13.642;2023-05-27T06:59:20;16.70;1.00
7248;DHT22;3665;51.034;13.642;2023-05-27T07:04:16;16.80;1.00
7248;DHT22;3665;51.034;13.642;2023-05-27T07:09:22;16.90;1.00
7248;DHT22;3665;51.034;13.642;2023-05-27T07:14:06;17.10;1.00
7248;DHT22;3665;51.034;13.642;2023-05-27T07:18:54;17.20;1.00
7248;DHT22;3665;51.034;13.642;2023-05-27T07:23:42;17.60;1.00
7248;DHT22;3665;51.034;13.642;2023-05-27T07:29:04;17.90;1.00
7248;DHT22;3665;51.034;13.642;2023-05-27T07:34:08;18.30;1.00
7248;DHT22;3665;51.034;13.642;2023-05-27T07:38:58;18.40;1.00
7248;DHT22;3665;51.034;13.642;2023-05-27T07:43:42;18.80;1.00
7248;DHT22;3665;51.034;13.642;2023-05-27T07:48:34;18.90;1.00
7248;DHT22;3665;51.034;13.642;2023-05-27T07:53:20;19.00;1.00
7248;DHT22;3665;51.034;13.642;2023-05-27T07:58:06;19.00;1.00
7248;DHT22;3665;51.034;13.642;2023-05-27T08:03:30;19.30;1.00
7248;DHT22;3665;51.034;13.642;2023-05-27T08:08:31;19.60;1.00
7248;DHT22;3665;51.034;13.642;2023-05-27T08:13:35;19.80;1.00
7248;DHT22;3665;51.034;13.642;2023-05-27T08:18:40;19.90;1.00
7248;DHT22;3665;51.034;13.642;2023-05-27T08:23:32;19.70;1.00
7248;DHT22;3665;51.034;13.642;2023-05-27T08:28:34;19.90;1.00
7248;DHT22;3665;51.034;13.642;2023-05-27T08:33:51;20.00;1.00
7248;DHT22;3665;51.034;13.642;2023-05-27T08:39:01;20.40;1.00
7248;DHT22;3665;51.034;13.642;2023-05-27T08:43:55;20.10;1.00
7248;DHT22;3665;51.034;13.642;2023-05-27T08:49:06;19.80;1.00
7248;DHT22;3665;51.034;13.642;2023-05-27T08:53:53;19.10;1.00
7248;DHT22;3665;51.034;13.642;2023-05-27T08:58:40;19.80;1.00
7248;DHT22;3665;51.034;13.642;2023-05-27T09:03:27;20.40;1.00
7248;DHT22;3665;51.034;13.642;2023-05-27T09:13:36;21.30;1.00
7248;DHT22;3665;51.034;13.642;2023-05-27T09:18:25;21.30;1.00
7248;DHT22;3665;51.034;13.642;2023-05-27T09:23:12;21.50;1.00
7248;DHT22;3665;51.034;13.642;2023-05-27T09:27:59;22.50;1.00
7248;DHT22;3665;51.034;13.642;2023-05-27T09:38:21;22.50;1.00
7248;DHT22;3665;51.034;13.642;2023-05-27T09:43:07;22.40;1.00
7248;DHT22;3665;51.034;13.642;2023-05-27T09:48:02;22.30;1.00
7248;DHT22;3665;51.034;13.642;2023-05-27T09:52:50;22.20;1.00
7248;DHT22;3665;51.034;13.642;2023-05-27T09:57:54;22.30;1.00
7248;DHT22;3665;51.034;13.642;2023-05-27T10:02:42;22.50;1.00
7248;DHT22;3665;51.034;13.642;2023-05-27T10:07:28;22.40;1.00
7248;DHT22;3665;51.034;13.642;2023-05-27T10:12:18;22.50;1.00
7248;DHT22;3665;51.034;13.642;2023-05-27T10:17:03;22.90;1.00
7248;DHT22;3665;51.034;13.642;2023-05-27T10:21:53;23.30;1.00
7248;DHT22;3665;51.034;13.642;2023-05-27T10:26:41;22.70;1.00
7248;DHT22;3665;51.034;13.642;2023-05-27T10:31:29;23.10;1.00
7248;DHT22;3665;51.034;13.642;2023-05-27T10:36:17;22.70;1.00
7248;DHT22;3665;51.034;13.642;2023-05-27T10:41:05;23.00;1.00
7248;DHT22;3665;51.034;13.642;2023-05-27T10:46:01;23.40;1.00
7248;DHT22;3665;51.034;13.642;2023-05-27T10:50:57;23.50;1.00
7248;DHT22;3665;51.034;13.642;2023-05-27T10:55:47;24.10;1.00
7248;DHT22;3665;51.034;13.642;2023-05-27T11:00:31;23.70;1.00
7248;DHT22;3665;51.034;13.642;2023-05-27T11:05:28;24.00;1.00
7248;DHT22;3665;51.034;13.642;2023-05-27T11:10:23;24.20;1.00
7248;DHT22;3665;51.034;13.642;2023-05-27T11:15:12;23.90;1.00
7248;DHT22;3665;51.034;13.642;2023-05-27T11:19:58;24.20;1.00
7248;DHT22;3665;51.034;13.642;2023-05-27T11:24:56;24.40;1.00
7248;DHT22;3665;51.034;13.642;2023-05-27T11:29:51;23.80;1.00
7248;DHT22;3665;51.034;13.642;2023-05-27T11:34:40;23.60;1.00
7248;DHT22;3665;51.034;13.642;2023-05-27T11:39:29;23.60;1.00
7248;DHT22;3665;51.034;13.642;2023-05-27T11:44:16;24.10;1.00
7248;DHT22;3665;51.034;13.642;2023-05-27T11:49:03;24.00;1.00
7248;DHT22;3665;51.034;13.642;2023-05-27T11:53:50;24.10;1.00
7248;DHT22;3665;51.034;13.642;2023-05-27T11:58:39;24.20;1.00
7248;DHT22;3665;51.034;13.642;2023-05-27T12:03:29;24.40;1.00
7248;DHT22;3665;51.034;13.642;2023-05-27T12:08:15;24.60;1.00
7248;DHT22;3665;51.034;13.642;2023-05-27T12:13:04;24.30;1.00
7248;DHT22;3665;51.034;13.642;2023-05-27T12:17:49;24.70;1.00
7248;DHT22;3665;51.034;13.642;2023-05-27T12:22:33;24.30;1.00
7248;DHT22;3665;51.034;13.642;2023-05-27T12:27:31;24.60;1.00
7248;DHT22;3665;51.034;13.642;2023-05-27T12:32:16;24.70;1.00
7248;DHT22;3665;51.034;13.642;2023-05-27T12:37:02;24.10;1.00
7248;DHT22;3665;51.034;13.642;2023-05-27T12:41:55;24.20;1.00
7248;DHT22;3665;51.034;13.642;2023-05-27T12:46:39;24.60;1.00
7248;DHT22;3665;51.034;13.642;2023-05-27T12:51:28;24.50;1.00
7248;DHT22;3665;51.034;13.642;2023-05-27T12:56:14;24.30;1.00
7248;DHT22;3665;51.034;13.642;2023-05-27T13:01:06;24.40;1.00
7248;DHT22;3665;51.034;13.642;2023-05-27T13:05:52;24.40;1.00
7248;DHT22;3665;51.034;13.642;2023-05-27T13:10:40;24.50;1.00
7248;DHT22;3665;51.034;13.642;2023-05-27T13:15:27;24.60;1.00
7248;DHT22;3665;51.034;13.642;2023-05-27T13:20:17;24.50;1.00
7248;DHT22;3665;51.034;13.642;2023-05-27T13:25:03;24.90;1.00
7248;DHT22;3665;51.034;13.642;2023-05-27T13:29:55;24.40;1.00
7248;DHT22;3665;51.034;13.642;2023-05-27T13:34:39;24.90;1.00
7248;DHT22;3665;51.034;13.642;2023-05-27T13:39:26;24.70;1.00
7248;DHT22;3665;51.034;13.642;2023-05-27T13:44:16;24.70;1.00
7248;DHT22;3665;51.034;13.642;2023-05-27T13:49:03;24.60;1.00
7248;DHT22;3665;51.034;13.642;2023-05-27T13:53:50;24.70;1.00
7248;DHT22;3665;51.034;13.642;2023-05-27T13:58:38;24.40;1.00
7248;DHT22;3665;51.034;13.642;2023-05-27T14:03:28;24.70;1.00
7248;DHT22;3665;51.034;13.642;2023-05-27T14:08:25;24.60;1.00
7248;DHT22;3665;51.034;13.642;2023-05-27T14:13:14;24.40;1.00
7248;DHT22;3665;51.034;13.642;2023-05-27T14:18:01;24.80;1.00
7248;DHT22;3665;51.034;13.642;2023-05-27T14:22:49;24.60;1.00
7248;DHT22;3665;51.034;13.642;2023-05-27T14:27:47;24.60;1.00
7248;DHT22;3665;51.034;13.642;2023-05-27T14:32:31;24.60;1.00
7248;DHT22;3665;51.034;13.642;2023-05-27T14:37:20;24.50;1.00
7248;DHT22;3665;51.034;13.642;2023-05-27T14:42:08;24.60;1.00
7248;DHT22;3665;51.034;13.642;2023-05-27T14:46:55;24.80;1.00
7248;DHT22;3665;51.034;13.642;2023-05-27T14:51:39;24.60;1.00
7248;DHT22;3665;51.034;13.642;2023-05-27T14:56:24;24.60;1.00
7248;DHT22;3665;51.034;13.642;2023-05-27T15:01:12;24.50;1.00
7248;DHT22;3665;51.034;13.642;2023-05-27T15:06:08;24.60;1.00
7248;DHT22;3665;51.034;13.642;2023-05-27T15:10:58;24.60;1.00
7248;DHT22;3665;51.034;13.642;2023-05-27T15:15:43;24.60;1.00
7248;DHT22;3665;51.034;13.642;2023-05-27T15:20:32;24.40;1.00
7248;DHT22;3665;51.034;13.642;2023-05-27T15:25:20;24.30;1.00
7248;DHT22;3665;51.034;13.642;2023-05-27T15:30:07;24.30;1.00
7248;DHT22;3665;51.034;13.642;2023-05-27T15:34:54;23.90;1.00
7248;DHT22;3665;51.034;13.642;2023-05-27T15:39:45;23.10;1.00
7248;DHT22;3665;51.034;13.642;2023-05-27T15:44:56;23.10;1.00
7248;DHT22;3665;51.034;13.642;2023-05-27T15:49:51;23.10;1.00
7248;DHT22;3665;51.034;13.642;2023-05-27T15:54:39;23.10;1.00
7248;DHT22;3665;51.034;13.642;2023-05-27T15:59:29;22.90;1.00
7248;DHT22;3665;51.034;13.642;2023-05-27T16:04:17;22.90;1.00
7248;DHT22;3665;51.034;13.642;2023-05-27T16:09:06;22.90;1.00
7248;DHT22;3665;51.034;13.642;2023-05-27T16:13:53;22.90;1.00
7248;DHT22;3665;51.034;13.642;2023-05-27T16:18:39;22.70;1.00
7248;DHT22;3665;51.034;13.642;2023-05-27T16:23:27;22.40;1.00
7248;DHT22;3665;51.034;13.642;2023-05-27T16:28:15;22.40;1.00
7248;DHT22;3665;51.034;13.642;2023-05-27T16:33:05;22.30;1.00
7248;DHT22;3665;51.034;13.642;2023-05-27T16:37:52;21.80;1.00
7248;DHT22;3665;51.034;13.642;2023-05-27T16:42:41;21.80;1.00
7248;DHT22;3665;51.034;13.642;2023-05-27T16:47:30;21.70;1.00
7248;DHT22;3665;51.034;13.642;2023-05-27T16:52:16;21.50;1.00
7248;DHT22;3665;51.034;13.642;2023-05-27T16:57:03;21.50;1.00
7248;DHT22;3665;51.034;13.642;2023-05-27T17:01:52;21.20;1.00
7248;DHT22;3665;51.034;13.642;2023-05-27T17:06:40;21.00;1.00
7248;DHT22;3665;51.034;13.642;2023-05-27T17:11:27;20.80;1.00
7248;DHT22;3665;51.034;13.642;2023-05-27T17:16:16;20.50;1.00
7248;DHT22;3665;51.034;13.642;2023-05-27T17:21:04;19.80;1.00
7248;DHT22;3665;51.034;13.642;2023-05-27T17:25:54;19.40;1.00
7248;DHT22;3665;51.034;13.642;2023-05-27T17:30:39;19.10;1.00
7248;DHT22;3665;51.034;13.642;2023-05-27T17:35:26;18.70;1.00
7248;DHT22;3665;51.034;13.642;2023-05-27T17:40:15;18.20;1.00
7248;DHT22;3665;51.034;13.642;2023-05-27T17:45:06;18.10;1.00
7248;DHT22;3665;51.034;13.642;2023-05-27T17:49:52;18.10;1.00
7248;DHT22;3665;51.034;13.642;2023-05-27T17:54:39;17.90;1.00
7248;DHT22;3665;51.034;13.642;2023-05-27T17:59:34;17.60;1.00
7248;DHT22;3665;51.034;13.642;2023-05-27T18:04:36;17.40;1.00
7248;DHT22;3665;51.034;13.642;2023-05-27T18:09:19;17.30;1.00
7248;DHT22;3665;51.034;13.642;2023-05-27T18:14:05;17.10;1.00
7248;DHT22;3665;51.034;13.642;2023-05-27T18:18:56;16.90;1.00
7248;DHT22;3665;51.034;13.642;2023-05-27T18:23:45;16.80;1.00
7248;DHT22;3665;51.034;13.642;2023-05-27T18:28:32;16.40;1.00
7248;DHT22;3665;51.034;13.642;2023-05-27T18:33:20;16.10;1.00
7248;DHT22;3665;51.034;13.642;2023-05-27T18:38:07;15.80;1.00
7248;DHT22;3665;51.034;13.642;2023-05-27T18:42:51;15.50;1.00
7248;DHT22;3665;51.034;13.642;2023-05-27T18:47:37;15.30;1.00
7248;DHT22;3665;51.034;13.642;2023-05-27T18:52:27;15.00;1.00
7248;DHT22;3665;51.034;13.642;2023-05-27T18:57:23;14.80;1.00
7248;DHT22;3665;51.034;13.642;2023-05-27T19:02:08;14.40;1.00
7248;DHT22;3665;51.034;13.642;2023-05-27T19:06:58;14.00;1.00
7248;DHT22;3665;51.034;13.642;2023-05-27T19:11:43;13.70;1.00
7248;DHT22;3665;51.034;13.642;2023-05-27T19:16:47;13.30;1.00
7248;DHT22;3665;51.034;13.642;2023-05-27T19:21:35;13.00;1.00
7248;DHT22;3665;51.034;13.642;2023-05-27T19:26:22;12.60;1.00
7248;DHT22;3665;51.034;13.642;2023-05-27T19:31:11;12.30;1.00
7248;DHT22;3665;51.034;13.642;2023-05-27T19:36:00;12.00;1.00
7248;DHT22;3665;51.034;13.642;2023-05-27T19:40:44;11.70;1.00
7248;DHT22;3665;51.034;13.642;2023-05-27T19:45:35;11.50;1.00
7248;DHT22;3665;51.034;13.642;2023-05-27T19:50:23;11.30;1.00
7248;DHT22;3665;51.034;13.642;2023-05-27T19:55:11;11.10;1.00
7248;DHT22;3665;51.034;13.642;2023-05-27T20:00:01;11.00;1.00
7248;DHT22;3665;51.034;13.642;2023-05-27T20:04:48;10.80;1.00
7248;DHT22;3665;51.034;13.642;2023-05-27T20:09:33;10.70;1.00
7248;DHT22;3665;51.034;13.642;2023-05-27T20:14:24;10.60;1.00
7248;DHT22;3665;51.034;13.642;2023-05-27T20:19:11;10.40;1.00
7248;DHT22;3665;51.034;13.642;2023-05-27T20:24:00;10.30;1.00
7248;DHT22;3665;51.034;13.642;2023-05-27T20:28:49;10.30;1.00
7248;DHT22;3665;51.034;13.642;2023-05-27T20:33:37;10.20;1.00
7248;DHT22;3665;51.034;13.642;2023-05-27T20:38:22;10.10;1.00
7248;DHT22;3665;51.034;13.642;2023-05-27T20:43:05;10.10;1.00
7248;DHT22;3665;51.034;13.642;2023-05-27T20:47:56;10.10;1.00
7248;DHT22;3665;51.034;13.642;2023-05-27T20:52:48;10.40;1.00
7248;DHT22;3665;51.034;13.642;2023-05-27T20:57:37;10.60;1.00
7248;DHT22;3665;51.034;13.642;2023-05-27T21:02:23;10.80;1.00
7248;DHT22;3665;51.034;13.642;2023-05-27T21:07:10;10.80;1.00
7248;DHT22;3665;51.034;13.642;2023-05-27T21:12:03;10.70;1.00
7248;DHT22;3665;51.034;13.642;2023-05-27T21:16:47;10.70;1.00
7248;DHT22;3665;51.034;13.642;2023-05-27T21:21:31;10.70;1.00
7248;DHT22;3665;51.034;13.642;2023-05-27T21:26:16;10.70;1.00
7248;DHT22;3665;51.034;13.642;2023-05-27T21:31:13;10.70;1.00
7248;DHT22;3665;51.034;13.642;2023-05-27T21:36:00;10.80;1.00
7248;DHT22;3665;51.034;13.642;2023-05-27T21:40:43;11.10;1.00
7248;DHT22;3665;51.034;13.642;2023-05-27T21:45:27;11.20;1.00
7248;DHT22;3665;51.034;13.642;2023-05-27T21:50:25;11.30;1.00
7248;DHT22;3665;51.034;13.642;2023-05-27T21:55:14;11.30;1.00
7248;DHT22;3665;51.034;13.642;2023-05-27T22:00:00;11.20;1.00
7248;DHT22;3665;51.034;13.642;2023-05-27T22:04:47;11.10;1.00
7248;DHT22;3665;51.034;13.642;2023-05-27T22:09:39;11.00;1.00
7248;DHT22;3665;51.034;13.642;2023-05-27T22:14:24;10.80;1.00
7248;DHT22;3665;51.034;13.642;2023-05-27T22:19:13;10.70;1.00
7248;DHT22;3665;51.034;13.642;2023-05-27T22:23:59;10.70;1.00
7248;DHT22;3665;51.034;13.642;2023-05-27T22:28:47;10.60;1.00
7248;DHT22;3665;51.034;13.642;2023-05-27T22:33:35;10.50;1.00
7248;DHT22;3665;51.034;13.642;2023-05-27T22:38:22;10.30;1.00
7248;DHT22;3665;51.034;13.642;2023-05-27T22:43:11;10.20;1.00
7248;DHT22;3665;51.034;13.642;2023-05-27T22:48:04;10.20;1.00
7248;DHT22;3665;51.034;13.642;2023-05-27T22:52:48;10.20;1.00
7248;DHT22;3665;51.034;13.642;2023-05-27T22:57:38;10.00;1.00
7248;DHT22;3665;51.034;13.642;2023-05-27T23:02:23;9.90;1.00
7248;DHT22;3665;51.034;13.642;2023-05-27T23:07:11;9.80;1.00
7248;DHT22;3665;51.034;13.642;2023-05-27T23:11:54;9.70;1.00
7248;DHT22;3665;51.034;13.642;2023-05-27T23:16:41;9.60;1.00
7248;DHT22;3665;51.034;13.642;2023-05-27T23:21:29;9.50;1.00
7248;DHT22;3665;51.034;13.642;2023-05-27T23:26:25;9.30;1.00
7248;DHT22;3665;51.034;13.642;2023-05-27T23:31:11;9.30;1.00
7248;DHT22;3665;51.034;13.642;2023-05-27T23:36:00;9.20;1.00
7248;DHT22;3665;51.034;13.642;2023-05-27T23:40:46;9.20;1.00
7248;DHT22;3665;51.034;13.642;2023-05-27T23:45:39;9.10;1.00
7248;DHT22;3665;51.034;13.642;2023-05-27T23:50:24;8.80;1.00
7248;DHT22;3665;51.034;13.642;2023-05-27T23:55:14;8.80;1.00
